Date,TemperatureHighF,TemperatureAvgF,TemperatureLowF,DewpointHighF,DewpointAvgF,DewpointLowF,HumidityHigh,HumidityAvg,HumidityLow,PressureMaxIn,PressureMinIn,WindSpeedMaxMPH,WindSpeedAvgMPH,GustSpeedMaxMPH,PrecipitationSumIn
2013-11-1,72.5,64.2,48.9,58.3,47.7,36.4,92,58,29,29.70,29.46,31,5,36,0.18
2013-11-2,58.5,48.2,39.6,48.3,40.1,35.1,97,75,44,29.93,29.66,18,2,19,0.02
2013-11-3,55.0,45.4,29.9,38.0,29.7,19.2,80,57,26,30.45,29.92,14,2,14,0.00
2013-11-4,45.0,34.2,24.7,27.4,24.7,22.5,93,70,44,30.65,30.45,7,0,7,0.00
2013-11-5,52.8,39.6,30.6,33.2,28.3,23.4,87,66,35,30.64,30.43,6,0,6,0.00
2013-11-6,71.3,50.7,30.6,49.6,40.0,28.8,94,70,41,30.44,29.94,19,2,19,0.00
2013-11-7,60.6,50.7,39.1,52.0,38.1,20.7,89,62,43,30.14,29.84,20,3,20,0.03
2013-11-8,48.2,38.3,26.6,27.6,23.9,20.8,86,58,35,30.34,30.12,21,3,21,0.00
2013-11-9,63.7,42.6,25.0,30.0,24.7,20.9,92,56,20,30.35,30.01,13,1,13,0.00
2013-11-10,55.5,48.6,38.2,34.8,27.8,22.7,59,45,31,30.29,29.99,22,5,26,0.00
2013-11-11,61.1,45.6,27.5,30.3,22.9,6.4,85,47,12,30.33,29.99,16,1,17,0.00
2013-11-12,51.9,35.4,26.8,35.8,20.9,12.2,73,56,34,30.48,29.98,22,5,22,0.00
2013-11-13,38.5,29.4,20.9,17.7,15.3,11.0,78,57,35,30.56,30.40,16,2,18,0.00
2013-11-14,64.2,35.1,17.6,25.4,17.5,8.8,88,58,14,30.41,30.21,11,0,12,0.00
2013-11-15,64.6,41.6,22.9,38.0,23.6,12.6,86,57,14,30.32,30.15,10,0,10,0.01
2013-11-16,65.3,51.1,37.9,48.8,43.7,36.6,98,77,51,30.29,30.13,12,1,13,0.02
2013-11-17,64.2,59.9,53.5,57.3,50.9,39.2,83,72,63,30.13,29.63,31,5,35,0.05
2013-11-18,61.1,53.6,43.8,47.6,29.2,22.1,78,40,23,30.01,29.73,33,7,33,0.05
2013-11-19,44.5,36.7,25.3,26.3,23.3,20.5,84,59,46,30.43,30.00,19,3,19,0.00
2013-11-20,47.8,30.8,20.9,26.2,19.2,11.2,93,66,25,30.59,30.42,7,0,7,0.00
2013-11-21,47.8,34.7,23.4,33.5,27.5,18.0,88,76,55,30.56,30.33,7,0,7,0.00
2013-11-22,54.9,46.3,37.0,47.5,40.0,32.5,87,79,69,30.35,30.05,17,1,17,0.00
2013-11-23,48.1,36.5,23.8,41.6,22.1,5.8,78,57,35,30.32,30.12,22,6,24,0.00
2013-11-24,26.2,20.8,13.8,15.3,6.4,1.6,84,55,35,30.59,30.31,19,4,24,0.00
2013-11-25,40.5,25.9,11.4,20.0,9.7,4.4,84,54,24,30.59,30.27,8,0,8,0.00
2013-11-26,36.0,33.2,31.8,31.7,28.0,12.5,98,83,39,30.28,29.68,11,1,11,1.03
2013-11-27,35.6,30.8,24.3,33.5,24.1,10.8,99,77,54,30.18,29.65,19,4,22,0.02
2013-11-28,36.0,28.1,24.1,20.2,15.2,9.5,76,59,40,30.48,30.16,18,2,21,0.00
2013-11-29,40.9,29.0,20.1,23.9,20.1,17.1,88,71,42,30.72,30.47,8,0,10,0.00
2013-11-30,39.5,25.3,16.7,24.2,19.6,14.3,91,80,50,30.71,30.33,6,0,7,0.00